01:14 MTB Badesee - Obermieming - Fronhausen - Haiming - Thannrain - Moetz
Ort Mieminger Badesee Datum 10.07.2016 16:58:06
Kategorie MTB
Distanz 35,06 Kilometer Steigung 116,7 Meter Gefälle -284,9 Meter
Gesamt Zeit 01:14:17 Aktiv 01:14:17 Pause 00:00:00
Durchs. Tempo 28,3 km/h Tempo max. 47,6 km/h Tempo min. 11,4 km/h
Kalorien 0 Durchs. HF 135 BPM HF max. 158 BPM
Wetter 32 °C Clear Min/Max: 31,1 °C/32,7 °C; Druck: 1010,8 mbar; Rel. Feuchte: 38,8%; Taupunkt: 15,9 °C; Windgeschwindigkeit: 8,4 km/h; Niederschlag: 0,0mm
Ausrüstung Bontrager - Race X Lite MTB
Schwalbe - Nobby Nic vorne
Schwalbe - Racing Ralph hinten
Shimano - HG-XTR 7701
Specialized - Stumpjumper Comp
Notiz Badesee - Obermieming - Fronhausen - Haiming - Thannrain - Moetz ... trocken, heiss, locker bis flott ... garmin connect
Splits
Distanz (km) Gesamt Zeit Split Zeit Split Tempo Split Tempo Höhenprofil (m)
1,00 00:02:58 00:02:58 00:02:58 20,2 10,90
2,00 00:06:41 00:03:43 00:03:43 16,1 52,43
3,00 00:09:33 00:02:51 00:02:51 21,0 16,49
4,00 00:11:19 00:01:46 00:01:46 33,9 2,30
5,00 00:14:03 00:02:44 00:02:44 21,9 -5,39
6,00 00:17:02 00:02:59 00:02:59 20,1 -51,16
7,00 00:18:49 00:01:46 00:01:46 33,8 -109,29
8,00 00:20:21 00:01:32 00:01:33 38,8 -48,15
9,00 00:22:07 00:01:45 00:01:45 34,1 -15,49
10,00 00:24:06 00:01:59 00:01:59 30,1 0,22
11,00 00:26:07 00:02:00 00:02:01 29,9 8,77
12,00 00:27:57 00:01:49 00:01:50 32,8 -1,14
13,00 00:29:48 00:01:51 00:01:51 32,4 -1,50
14,00 00:31:40 00:01:51 00:01:52 32,2 2,95
15,00 00:33:33 00:01:53 00:01:53 31,8 2,41
16,00 00:35:48 00:02:15 00:02:15 26,7 -0,25
17,00 00:37:48 00:01:59 00:02:00 30,1 0,95
18,00 00:40:27 00:02:39 00:02:40 22,5 2,38
19,00 00:42:27 00:01:59 00:02:00 30,1 -1,66
20,00 00:44:27 00:01:59 00:02:00 30,0 1,51
21,00 00:46:19 00:01:52 00:01:52 32,0 -10,15
22,00 00:48:15 00:01:55 00:01:56 31,1 -4,43
23,00 00:50:09 00:01:54 00:01:54 31,5 -2,28
24,00 00:52:05 00:01:55 00:01:56 31,0 -5,21
25,00 00:54:19 00:02:13 00:02:14 26,9 9,27
26,00 00:57:01 00:02:41 00:02:42 22,3 19,49
27,00 00:58:36 00:01:34 00:01:35 37,9 -32,07
28,00 01:00:44 00:02:07 00:02:08 28,2 -1,92
29,00 01:02:51 00:02:07 00:02:07 28,3 -2,69
30,00 01:04:31 00:01:40 00:01:40 36,0 1,51
31,00 01:06:17 00:01:46 00:01:47 33,8 1,73
32,00 01:08:08 00:01:50 00:01:51 32,5 2,11
33,00 01:10:02 00:01:53 00:01:53 31,8 -0,63
34,00 01:11:59 00:01:57 00:01:57 30,7 9,40
35,00 01:14:06 00:02:07 00:02:08 28,2 1,63
35,06 01:14:17 00:00:10 00:02:59 20,2 -0,19